Time;durP1;ratioP1;P1;durP2;ratioP2;P2;SDS_P1;SDS_P2;PMS_P1;PMS_P2;Temp;Humidity;BMP_temperature;BMP_pressure;BME280_temperature;BME280_humidity;BME280_pressure;Samples;Min_cycle;Max_cycle;Signal;HPM_P1;HPM_P2
2021/07/19 00:02:20;;;;;;;11.02;6.88;;;19.40;77.50;;;;;;6216257;23;20020;-80
2021/07/19 00:04:48;;;;;;;14.10;6.85;;;19.40;77.50;;;;;;6189413;23;20025;-80
2021/07/19 00:07:15;;;;;;;15.40;6.88;;;19.30;77.60;;;;;;6189900;23;20017;-81
2021/07/19 00:09:46;;;;;;;13.48;6.55;;;19.30;77.70;;;;;;6189775;23;20401;-80
2021/07/19 00:12:15;;;;;;;9.13;7.10;;;19.30;77.80;;;;;;6189654;23;20060;-80
2021/07/19 00:14:46;;;;;;;9.90;6.45;;;19.20;77.80;;;;;;6189528;23;20087;-81
2021/07/19 00:17:16;;;;;;;12.80;6.57;;;19.30;77.80;;;;;;6189341;23;20017;-80
2021/07/19 00:19:43;;;;;;;11.88;7.10;;;19.20;77.80;;;;;;6189438;23;20180;-80
2021/07/19 00:22:10;;;;;;;10.23;7.10;;;19.20;77.90;;;;;;6189304;23;20031;-81
2021/07/19 00:24:37;;;;;;;10.80;7.22;;;19.10;78.00;;;;;;6216028;23;20131;-81
2021/07/19 00:27:05;;;;;;;14.20;7.85;;;19.10;77.90;;;;;;6189192;23;20095;-81
2021/07/19 00:29:33;;;;;;;8.57;6.95;;;19.10;77.90;;;;;;6189757;23;20047;-81
2021/07/19 00:32:00;;;;;;;11.98;7.55;;;19.10;77.90;;;;;;6189678;23;20024;-81
2021/07/19 00:34:27;;;;;;;9.10;6.65;;;19.00;77.80;;;;;;6189201;23;20345;-80
2021/07/19 00:36:54;;;;;;;8.50;6.35;;;19.00;77.80;;;;;;6189369;23;20040;-81
2021/07/19 00:39:23;;;;;;;10.77;6.88;;;19.00;77.80;;;;;;6189099;23;20415;-81
2021/07/19 00:41:51;;;;;;;14.32;7.25;;;19.00;77.70;;;;;;6214912;23;20048;-81
2021/07/19 00:44:20;;;;;;;9.90;7.00;;;19.00;77.70;;;;;;6189027;23;20021;-81
2021/07/19 00:46:52;;;;;;;10.35;7.32;;;18.90;77.60;;;;;;6215717;23;20016;-81
2021/07/19 00:49:24;;;;;;;9.20;6.60;;;18.90;77.40;;;;;;6189297;23;20095;-81
2021/07/19 00:51:51;;;;;;;12.30;6.75;;;18.90;77.30;;;;;;6215483;23;20021;-81
2021/07/19 00:54:20;;;;;;;9.10;6.47;;;18.90;77.50;;;;;;6189349;23;20020;-80
2021/07/19 00:56:50;;;;;;;9.70;6.88;;;18.90;77.60;;;;;;6188890;23;20040;-81
2021/07/19 00:59:21;;;;;;;9.73;6.43;;;18.80;77.70;;;;;;6188952;23;20103;-80
2021/07/19 01:01:50;;;;;;;10.05;6.40;;;18.80;77.80;;;;;;6188876;23;20027;-80
2021/07/19 01:04:20;;;;;;;11.27;6.10;;;18.80;78.00;;;;;;6215861;23;20334;-81
2021/07/19 01:06:48;;;;;;;8.00;6.70;;;18.80;78.00;;;;;;6215576;23;20024;-81
2021/07/19 01:09:16;;;;;;;8.45;7.07;;;18.70;78.00;;;;;;6188580;23;20095;-81
2021/07/19 01:11:43;;;;;;;10.13;7.80;;;18.60;77.90;;;;;;6189171;23;20048;-80
2021/07/19 01:14:10;;;;;;;11.38;7.43;;;18.70;77.90;;;;;;6189251;23;20024;-81
2021/07/19 01:16:37;;;;;;;8.65;6.80;;;18.70;77.90;;;;;;6188781;23;20556;-80
2021/07/19 01:19:04;;;;;;;9.10;6.70;;;18.60;77.90;;;;;;6215096;23;20032;-81
2021/07/19 01:21:46;;;;;;;9.85;7.35;;;18.60;78.00;;;;;;6189081;23;20020;-80
2021/07/19 01:24:29;;;;;;;8.15;6.88;;;18.50;78.00;;;;;;6188793;23;20095;-81
2021/07/19 01:27:31;;;;;;;10.70;7.30;;;18.50;78.10;;;;;;6188852;23;20095;-80
2021/07/19 01:30:01;;;;;;;12.55;7.30;;;18.50;78.10;;;;;;6215511;23;20023;-81
2021/07/19 01:32:29;;;;;;;10.88;7.45;;;18.50;78.10;;;;;;6188870;23;20047;-80
2021/07/19 01:34:58;;;;;;;9.73;7.60;;;18.40;78.10;;;;;;6188848;23;20516;-80
2021/07/19 01:37:27;;;;;;;10.52;7.10;;;18.40;78.20;;;;;;6188579;23;20028;-81
2021/07/19 01:39:54;;;;;;;11.60;7.40;;;18.40;78.10;;;;;;6214843;23;20021;-80
2021/07/19 01:42:22;;;;;;;12.27;7.13;;;18.40;78.20;;;;;;6215040;23;20027;-80
2021/07/19 01:44:50;;;;;;;9.48;6.43;;;18.40;78.10;;;;;;6189349;23;20067;-80
2021/07/19 01:47:17;;;;;;;10.63;7.72;;;18.40;78.00;;;;;;6189046;23;20016;-80
2021/07/19 01:49:45;;;;;;;8.95;6.78;;;18.40;77.90;;;;;;6189142;23;20095;-80
2021/07/19 01:52:14;;;;;;;12.00;7.20;;;18.30;78.00;;;;;;6188490;23;20030;-80
2021/07/19 01:54:43;;;;;;;11.43;7.63;;;18.30;78.00;;;;;;6188511;23;20337;-80
2021/07/19 01:57:11;;;;;;;9.75;7.55;;;18.30;78.00;;;;;;6188841;23;20048;-80
2021/07/19 01:59:39;;;;;;;8.75;7.50;;;18.20;78.00;;;;;;6215197;23;20464;-80
2021/07/19 02:02:08;;;;;;;9.57;6.80;;;18.20;77.90;;;;;;6188619;23;20367;-80
2021/07/19 02:04:35;;;;;;;10.27;7.80;;;18.20;77.90;;;;;;6188729;23;20377;-80
2021/07/19 02:07:03;;;;;;;10.00;6.88;;;18.20;77.80;;;;;;6188480;23;20456;-80
2021/07/19 02:09:33;;;;;;;13.05;7.20;;;18.20;77.80;;;;;;6189127;23;20052;-80
2021/07/19 02:12:03;;;;;;;9.20;7.13;;;18.10;77.60;;;;;;6214945;23;20478;-80
2021/07/19 02:14:31;;;;;;;9.15;7.25;;;18.10;77.50;;;;;;6189741;23;20020;-80
2021/07/19 02:17:00;;;;;;;10.68;6.72;;;18.10;77.40;;;;;;6214751;23;20519;-80
2021/07/19 02:19:29;;;;;;;9.90;6.80;;;18.10;77.60;;;;;;6188777;23;20075;-80
2021/07/19 02:21:56;;;;;;;11.88;7.00;;;18.10;77.60;;;;;;6188632;23;20020;-80
2021/07/19 02:24:27;;;;;;;9.48;6.63;;;18.00;77.60;;;;;;6214850;23;20539;-80
2021/07/19 02:26:55;;;;;;;7.88;6.55;;;18.00;77.60;;;;;;6188633;23;20095;-80
2021/07/19 02:29:25;;;;;;;14.98;7.18;;;17.90;77.60;;;;;;6188541;23;20027;-80
2021/07/19 02:31:52;;;;;;;11.05;6.95;;;17.90;77.70;;;;;;6188507;23;20096;-80
2021/07/19 02:34:21;;;;;;;11.80;7.43;;;17.90;77.80;;;;;;6188876;23;20095;-80
2021/07/19 02:36:49;;;;;;;12.60;7.32;;;17.90;77.80;;;;;;6182744;23;20567;-80
2021/07/19 02:39:17;;;;;;;10.05;7.18;;;17.90;77.80;;;;;;6183354;23;20494;-80
2021/07/19 02:41:45;;;;;;;12.52;7.07;;;17.80;77.70;;;;;;6184785;23;20083;-80
2021/07/19 02:44:13;;;;;;;9.68;7.53;;;17.80;77.80;;;;;;6183649;23;20469;-79
2021/07/19 02:46:41;;;;;;;14.35;7.22;;;17.80;77.90;;;;;;6183216;23;20021;-80
2021/07/19 02:49:10;;;;;;;9.40;6.78;;;17.70;78.00;;;;;;6185019;23;20021;-80
2021/07/19 02:51:38;;;;;;;14.57;7.03;;;17.70;78.10;;;;;;6183152;23;20361;-80
2021/07/19 02:54:07;;;;;;;10.50;6.60;;;17.70;78.10;;;;;;6184720;23;20368;-80
2021/07/19 02:56:37;;;;;;;12.20;7.63;;;17.60;78.10;;;;;;6185015;23;20101;-79
2021/07/19 02:59:04;;;;;;;10.88;6.93;;;17.60;78.10;;;;;;6183324;23;20499;-79
2021/07/19 03:01:33;;;;;;;12.35;7.82;;;17.60;78.00;;;;;;6184001;23;20021;-80
2021/07/19 03:04:02;;;;;;;12.52;8.07;;;17.60;78.00;;;;;;6186173;23;20027;-79
2021/07/19 03:06:36;;;;;;;11.40;8.25;;;17.60;78.00;;;;;;6184813;23;20021;-80
2021/07/19 03:09:05;;;;;;;15.45;7.53;;;17.60;78.00;;;;;;6186730;23;20017;-79
2021/07/19 03:11:50;;;;;;;12.70;7.55;;;17.50;78.20;;;;;;6186321;23;20101;-79
2021/07/19 03:14:21;;;;;;;17.00;7.57;;;17.50;78.20;;;;;;6185567;23;20048;-80
2021/07/19 03:16:50;;;;;;;11.80;7.75;;;17.50;78.30;;;;;;6187007;23;20097;-79
2021/07/19 03:19:20;;;;;;;11.40;8.30;;;17.40;78.30;;;;;;6185347;23;20051;-79
2021/07/19 03:21:51;;;;;;;13.52;8.10;;;17.40;78.30;;;;;;6184459;23;20021;-80
2021/07/19 03:24:19;;;;;;;14.07;7.65;;;17.40;78.20;;;;;;6185267;23;20028;-79
2021/07/19 03:26:46;;;;;;;18.15;8.30;;;17.40;78.20;;;;;;6185215;23;20025;-79
2021/07/19 03:29:13;;;;;;;11.60;7.78;;;17.40;78.30;;;;;;6186602;23;20024;-79
2021/07/19 03:31:42;;;;;;;20.35;8.93;;;17.40;78.30;;;;;;6185165;23;20017;-79
2021/07/19 03:34:11;;;;;;;12.15;7.88;;;17.40;78.40;;;;;;6186252;23;20017;-80
2021/07/19 03:36:38;;;;;;;13.05;8.55;;;17.40;78.40;;;;;;6184510;23;20021;-80
2021/07/19 03:39:07;;;;;;;13.55;8.23;;;17.30;78.50;;;;;;6186136;23;20432;-79
2021/07/19 03:41:34;;;;;;;14.93;7.95;;;17.30;78.50;;;;;;6186081;23;20021;-79
2021/07/19 03:44:02;;;;;;;12.30;7.72;;;17.30;78.40;;;;;;6186006;23;20465;-79
2021/07/19 03:46:30;;;;;;;13.23;7.97;;;17.30;78.40;;;;;;6185862;23;20032;-80
2021/07/19 03:48:58;;;;;;;13.65;8.23;;;17.20;78.30;;;;;;6184616;23;20468;-79
2021/07/19 03:51:28;;;;;;;12.52;6.80;;;17.20;78.20;;;;;;6184689;23;20027;-79
2021/07/19 03:53:55;;;;;;;14.23;8.05;;;17.20;78.30;;;;;;6186370;23;20103;-79
2021/07/19 03:56:26;;;;;;;12.20;6.75;;;17.20;78.30;;;;;;6184855;23;20096;-79
2021/07/19 03:58:57;;;;;;;11.75;7.72;;;17.10;78.30;;;;;;6186310;23;20032;-79
2021/07/19 04:01:25;;;;;;;15.95;7.90;;;17.10;78.40;;;;;;6185960;23;20360;-79
2021/07/19 04:03:56;;;;;;;13.15;8.07;;;17.10;78.50;;;;;;6184423;23;20020;-79
2021/07/19 04:06:23;;;;;;;12.13;7.53;;;17.00;78.50;;;;;;6185886;23;20088;-79
2021/07/19 04:08:51;;;;;;;11.40;8.50;;;17.00;78.60;;;;;;6186239;23;20051;-79
2021/07/19 04:11:19;;;;;;;16.88;8.15;;;17.00;78.70;;;;;;6185816;23;20048;-79
2021/07/19 04:13:47;;;;;;;15.50;8.20;;;17.00;78.80;;;;;;6184311;23;20021;-79
2021/07/19 04:16:18;;;;;;;23.75;8.43;;;16.90;78.90;;;;;;6186165;23;20108;-80
2021/07/19 04:18:52;;;;;;;12.45;7.97;;;16.90;79.00;;;;;;6184011;23;20388;-79
2021/07/19 04:21:21;;;;;;;17.38;8.40;;;16.90;79.00;;;;;;6186101;23;20096;-79
2021/07/19 04:23:51;;;;;;;11.50;8.20;;;16.90;79.10;;;;;;6184602;23;20024;-79
2021/07/19 04:26:19;;;;;;;17.42;9.05;;;16.90;79.00;;;;;;6184557;23;20491;-79
2021/07/19 04:28:46;;;;;;;14.18;8.75;;;16.90;79.10;;;;;;6184545;23;20021;-79
2021/07/19 04:31:16;;;;;;;17.35;8.40;;;16.90;79.10;;;;;;6184044;23;20021;-79
2021/07/19 04:33:47;;;;;;;11.30;7.90;;;16.90;78.90;;;;;;6184026;23;20096;-79
2021/07/19 04:36:17;;;;;;;15.95;7.80;;;16.90;78.90;;;;;;6184489;23;20029;-79
2021/07/19 04:38:48;;;;;;;15.07;8.05;;;16.90;78.90;;;;;;6184421;23;20079;-79
2021/07/19 04:41:19;;;;;;;11.52;7.57;;;16.90;78.90;;;;;;6185460;23;20465;-79
2021/07/19 04:43:49;;;;;;;14.68;7.75;;;16.90;78.60;;;;;;6184173;23;20023;-79
2021/07/19 04:46:17;;;;;;;14.98;8.10;;;16.90;78.60;;;;;;6185763;23;20017;-78
2021/07/19 04:48:46;;;;;;;13.38;8.23;;;16.90;78.60;;;;;;6183796;23;20052;-78
2021/07/19 04:51:13;;;;;;;17.27;8.23;;;16.90;78.50;;;;;;6183968;23;20372;-79
2021/07/19 04:53:40;;;;;;;17.23;8.50;;;16.80;78.40;;;;;;6184476;23;20095;-79
2021/07/19 04:56:07;;;;;;;14.02;8.30;;;16.80;78.50;;;;;;6185497;23;20100;-79
2021/07/19 04:58:35;;;;;;;14.35;8.82;;;16.80;78.60;;;;;;6184282;23;20017;-79
2021/07/19 05:01:06;;;;;;;19.80;8.43;;;16.80;78.90;;;;;;6184481;23;20017;-79
2021/07/19 05:03:38;;;;;;;12.02;7.35;;;16.80;79.30;;;;;;6184068;23;20021;-80
2021/07/19 05:06:06;;;;;;;14.57;7.78;;;16.80;79.60;;;;;;6184222;23;20025;-79
2021/07/19 05:08:34;;;;;;;12.48;8.48;;;16.80;79.80;;;;;;6185633;23;20040;-79
2021/07/19 05:11:02;;;;;;;19.10;8.35;;;16.90;80.00;;;;;;6184107;23;20017;-79
2021/07/19 05:13:31;;;;;;;16.67;8.73;;;16.80;80.10;;;;;;6184104;23;20027;-79
2021/07/19 05:15:59;;;;;;;16.10;8.32;;;16.90;80.00;;;;;;6184768;23;20031;-79
2021/07/19 05:18:27;;;;;;;16.00;8.77;;;16.90;79.60;;;;;;6183651;23;20021;-79
2021/07/19 05:20:55;;;;;;;16.80;8.25;;;16.90;79.30;;;;;;6185515;23;20100;-79
2021/07/19 05:23:24;;;;;;;14.07;8.50;;;16.90;79.30;;;;;;6183870;23;20043;-79
2021/07/19 05:25:52;;;;;;;15.93;8.73;;;16.90;79.40;;;;;;6183770;23;20013;-79
2021/07/19 05:28:19;;;;;;;13.48;8.80;;;16.90;79.60;;;;;;6184052;23;20040;-79
2021/07/19 05:30:48;;;;;;;16.77;8.85;;;16.90;79.70;;;;;;6184737;23;20473;-79
2021/07/19 05:33:20;;;;;;;14.65;9.15;;;16.90;79.90;;;;;;6183761;23;20025;-79
2021/07/19 05:35:48;;;;;;;18.13;9.43;;;17.00;80.00;;;;;;6187212;23;20031;-79
2021/07/19 05:38:15;;;;;;;20.52;10.00;;;17.00;80.30;;;;;;6189032;23;20465;-79
2021/07/19 05:40:43;;;;;;;22.92;10.68;;;17.10;80.30;;;;;;6188780;23;20017;-79
2021/07/19 05:43:11;;;;;;;17.73;10.63;;;17.10;80.40;;;;;;6188654;23;20387;-78
2021/07/19 05:45:38;;;;;;;20.75;11.93;;;17.10;80.40;;;;;;6188948;23;20016;-79
2021/07/19 05:48:06;;;;;;;16.73;11.27;;;17.10;80.60;;;;;;6215324;23;20044;-79
2021/07/19 05:50:35;;;;;;;15.73;12.52;;;17.20;80.80;;;;;;6189118;23;20096;-79
2021/07/19 05:53:02;;;;;;;17.83;12.25;;;17.20;81.10;;;;;;6188842;23;20341;-79
2021/07/19 05:55:30;;;;;;;24.98;15.15;;;17.30;81.30;;;;;;6188901;23;20021;-79
2021/07/19 05:57:59;;;;;;;20.48;12.88;;;17.40;81.40;;;;;;6215384;23;20031;-79
2021/07/19 06:00:27;;;;;;;21.30;13.65;;;17.40;81.60;;;;;;6214644;23;20035;-79
2021/07/19 06:02:54;;;;;;;21.10;15.23;;;17.50;81.70;;;;;;6188734;23;20492;-79
2021/07/19 06:05:21;;;;;;;27.13;17.63;;;17.60;81.80;;;;;;6215288;23;20017;-79
2021/07/19 06:07:49;;;;;;;26.63;16.85;;;17.60;82.00;;;;;;6188491;23;20027;-79
2021/07/19 06:10:16;;;;;;;25.95;16.63;;;17.70;82.10;;;;;;6188730;23;20029;-79
2021/07/19 06:12:44;;;;;;;20.45;15.80;;;17.70;82.20;;;;;;6214868;23;20013;-79
2021/07/19 06:15:13;;;;;;;23.10;15.82;;;17.90;82.20;;;;;;6214909;23;20348;-79
2021/07/19 06:17:41;;;;;;;21.05;16.25;;;17.90;82.20;;;;;;6215004;23;20013;-79
2021/07/19 06:20:13;;;;;;;24.00;16.27;;;17.90;82.20;;;;;;6188514;23;20360;-79
2021/07/19 06:22:42;;;;;;;22.50;16.88;;;18.00;82.20;;;;;;6188352;23;20021;-78
2021/07/19 06:25:12;;;;;;;22.85;16.10;;;18.10;82.30;;;;;;6188916;23;20019;-78
2021/07/19 06:27:39;;;;;;;23.70;17.75;;;18.20;82.30;;;;;;6189276;23;20013;-78
2021/07/19 06:30:08;;;;;;;21.00;17.02;;;18.30;82.30;;;;;;6188297;23;20468;-78
2021/07/19 06:32:35;;;;;;;19.50;15.95;;;18.40;82.30;;;;;;6188632;23;20421;-79
2021/07/19 06:35:04;;;;;;;27.17;17.25;;;18.40;82.30;;;;;;6188499;23;20047;-79
2021/07/19 06:37:31;;;;;;;20.85;16.40;;;18.40;82.30;;;;;;6215566;23;20024;-79
2021/07/19 06:39:58;;;;;;;27.20;18.65;;;18.50;82.30;;;;;;6190853;23;20023;-79
2021/07/19 06:42:25;;;;;;;21.13;17.35;;;18.60;82.30;;;;;;6217044;23;20017;-78
2021/07/19 06:45:01;;;;;;;23.65;16.77;;;18.70;82.40;;;;;;6189932;23;20017;-78
2021/07/19 06:47:28;;;;;;;28.52;17.70;;;18.70;82.40;;;;;;6216813;23;20476;-79
2021/07/19 06:49:57;;;;;;;23.50;17.80;;;18.80;82.50;;;;;;6216868;23;20027;-79
2021/07/19 06:52:24;;;;;;;25.42;16.98;;;18.90;82.50;;;;;;6190758;23;20016;-79
2021/07/19 06:54:51;;;;;;;24.73;17.30;;;18.90;82.40;;;;;;6190550;23;20020;-78
2021/07/19 06:57:19;;;;;;;20.40;16.45;;;19.00;82.40;;;;;;6190047;23;20021;-78
2021/07/19 06:59:48;;;;;;;24.38;17.27;;;19.10;82.30;;;;;;6216982;23;20025;-79
2021/07/19 07:02:15;;;;;;;23.88;15.85;;;19.20;82.20;;;;;;6217264;23;20016;-78
2021/07/19 07:04:44;;;;;;;20.05;15.02;;;19.30;82.10;;;;;;6216521;23;20016;-79
2021/07/19 07:07:11;;;;;;;21.88;15.68;;;19.30;81.90;;;;;;6190583;23;20039;-79
2021/07/19 07:09:38;;;;;;;22.05;15.93;;;19.40;81.60;;;;;;6190400;23;20016;-77
2021/07/19 07:12:18;;;;;;;18.00;14.25;;;19.50;81.40;;;;;;6216418;23;20096;-79
2021/07/19 07:14:45;;;;;;;21.30;14.82;;;19.60;81.30;;;;;;6190127;23;20456;-81
2021/07/19 07:17:13;;;;;;;24.15;14.02;;;19.70;81.30;;;;;;6214346;23;20022;-80
2021/07/19 07:19:40;;;;;;;17.73;14.00;;;19.80;81.20;;;;;;6215018;23;20101;-78
2021/07/19 07:22:07;;;;;;;16.27;13.73;;;19.90;81.10;;;;;;6216319;23;20031;-78
2021/07/19 07:24:40;;;;;;;21.58;14.52;;;19.90;80.90;;;;;;6216089;23;20020;-77
2021/07/19 07:27:09;;;;;;;15.82;13.70;;;20.00;80.80;;;;;;6187831;23;20020;-78
2021/07/19 07:29:37;;;;;;;19.15;13.82;;;20.00;80.40;;;;;;6215637;23;20116;-78
2021/07/19 07:32:05;;;;;;;19.15;12.85;;;20.10;80.20;;;;;;6215432;23;20017;-78
2021/07/19 07:34:33;;;;;;;18.98;13.40;;;20.30;80.10;;;;;;6215197;23;20079;-78
2021/07/19 07:37:01;;;;;;;15.45;12.00;;;20.40;80.00;;;;;;6188945;23;20031;-80
2021/07/19 07:39:28;;;;;;;22.25;10.52;;;20.40;79.70;;;;;;6188223;23;20024;-77
2021/07/19 07:41:55;;;;;;;14.93;10.02;;;20.40;79.60;;;;;;6188369;23;20020;-77
2021/07/19 07:44:23;;;;;;;13.15;9.00;;;20.60;79.40;;;;;;6215337;23;20399;-75
2021/07/19 07:46:50;;;;;;;13.30;10.43;;;20.70;79.10;;;;;;6214697;23;20021;-75
2021/07/19 07:49:21;;;;;;;14.57;9.77;;;20.70;78.70;;;;;;6214159;23;20022;-75
2021/07/19 07:51:48;;;;;;;14.65;9.15;;;20.80;78.70;;;;;;6215013;23;20341;-80
2021/07/19 07:54:16;;;;;;;13.75;10.07;;;20.90;78.50;;;;;;6188976;23;20027;-75
2021/07/19 07:56:44;;;;;;;15.40;8.65;;;20.90;78.10;;;;;;6214470;23;20020;-77
2021/07/19 07:59:26;;;;;;;13.35;8.63;;;20.90;77.40;;;;;;6214605;23;20104;-76
2021/07/19 08:01:53;;;;;;;12.52;8.40;;;21.00;77.20;;;;;;6214953;23;20059;-75
2021/07/19 08:04:20;;;;;;;24.83;8.52;;;21.00;77.20;;;;;;6214841;23;20048;-75
2021/07/19 08:06:47;;;;;;;11.65;9.13;;;21.10;77.10;;;;;;6188713;23;20087;-80
2021/07/19 08:09:14;;;;;;;16.63;9.52;;;21.20;76.80;;;;;;6188498;23;20012;-79
2021/07/19 08:11:42;;;;;;;13.68;8.80;;;21.30;76.60;;;;;;6188059;23;20353;-76
2021/07/19 08:14:09;;;;;;;20.55;8.73;;;21.40;76.40;;;;;;6187869;23;20024;-76
2021/07/19 08:16:39;;;;;;;16.63;9.07;;;21.40;75.60;;;;;;6211514;23;20024;-75
2021/07/19 08:19:08;;;;;;;16.75;8.32;;;21.50;75.50;;;;;;6214458;23;20079;-75
2021/07/19 08:21:37;;;;;;;14.10;8.25;;;21.60;75.00;;;;;;6215835;23;20360;-75
2021/07/19 08:24:05;;;;;;;10.18;7.40;;;21.70;74.80;;;;;;6215493;23;20027;-75
2021/07/19 08:26:32;;;;;;;17.85;7.65;;;21.80;74.00;;;;;;6215882;23;20023;-74
2021/07/19 08:29:00;;;;;;;14.15;7.28;;;21.80;72.90;;;;;;6215809;23;20021;-75
2021/07/19 08:31:28;;;;;;;13.43;6.28;;;21.90;73.40;;;;;;6189085;23;20029;-76
2021/07/19 08:33:56;;;;;;;15.60;6.97;;;21.90;73.10;;;;;;6189218;23;20399;-75
2021/07/19 08:36:24;;;;;;;17.50;6.65;;;22.00;73.30;;;;;;6215222;23;20024;-77
2021/07/19 08:38:51;;;;;;;15.63;6.32;;;22.10;72.90;;;;;;6189205;23;20051;-76
2021/07/19 08:41:18;;;;;;;13.07;6.30;;;22.20;72.80;;;;;;6215089;23;20027;-75
2021/07/19 08:43:46;;;;;;;15.27;6.10;;;22.30;73.00;;;;;;6215232;23;20021;-76
2021/07/19 08:46:13;;;;;;;13.52;6.57;;;22.40;72.90;;;;;;6188864;23;20419;-76
2021/07/19 08:48:40;;;;;;;12.68;5.72;;;22.40;72.90;;;;;;6215258;23;20024;-77
2021/07/19 08:51:07;;;;;;;8.00;5.63;;;22.40;72.00;;;;;;6189343;23;20020;-75
2021/07/19 08:53:36;;;;;;;9.88;5.32;;;22.50;72.20;;;;;;6215186;23;20027;-77
2021/07/19 08:56:08;;;;;;;9.25;5.75;;;22.60;72.00;;;;;;6215172;23;20020;-77
2021/07/19 08:58:35;;;;;;;8.05;4.80;;;22.70;70.60;;;;;;6188780;23;20483;-75
2021/07/19 09:01:03;;;;;;;11.93;5.05;;;22.80;70.80;;;;;;6189246;23;20025;-77
2021/07/19 09:03:31;;;;;;;11.65;4.72;;;22.90;69.90;;;;;;6189159;23;20025;-77
2021/07/19 09:05:58;;;;;;;11.88;4.28;;;22.90;69.90;;;;;;6215055;23;20421;-76
2021/07/19 09:08:26;;;;;;;8.40;4.57;;;23.10;70.10;;;;;;6186603;23;20508;-75
2021/07/19 09:10:53;;;;;;;10.55;4.40;;;23.20;70.10;;;;;;6188268;23;20027;-76
2021/07/19 09:13:21;;;;;;;10.10;4.20;;;23.20;70.10;;;;;;6214498;23;20020;-76
2021/07/19 09:15:57;;;;;;;11.35;4.65;;;23.30;70.10;;;;;;6215158;23;20020;-75
2021/07/19 09:18:25;;;;;;;10.30;4.20;;;23.40;70.30;;;;;;6214483;23;20471;-75
2021/07/19 09:20:52;;;;;;;10.68;4.10;;;23.40;69.90;;;;;;6214640;23;20024;-75
2021/07/19 09:23:28;;;;;;;10.32;4.40;;;23.50;69.40;;;;;;6214547;23;20041;-75
2021/07/19 09:25:56;;;;;;;11.52;4.60;;;23.50;69.40;;;;;;6187664;23;20337;-75
2021/07/19 09:28:30;;;;;;;9.43;4.30;;;23.60;68.30;;;;;;6213946;23;20355;-80
2021/07/19 09:31:08;;;;;;;19.42;4.85;;;23.80;68.60;;;;;;6187588;23;20020;-78
2021/07/19 09:33:35;;;;;;;10.60;4.18;;;23.80;68.10;;;;;;6187220;23;20056;-80
2021/07/19 09:36:04;;;;;;;15.30;4.68;;;23.90;67.60;;;;;;6213799;23;20016;-79
2021/07/19 09:38:32;;;;;;;11.02;4.78;;;23.90;68.00;;;;;;6187738;23;20016;-77
2021/07/19 09:41:01;;;;;;;9.30;4.63;;;24.00;68.50;;;;;;6213912;23;20372;-78
2021/07/19 09:43:31;;;;;;;8.65;4.45;;;24.10;68.60;;;;;;6213726;23;20020;-78
2021/07/19 09:46:06;;;;;;;10.98;4.78;;;24.10;68.90;;;;;;6187391;23;20040;-79
2021/07/19 09:48:34;;;;;;;8.43;4.15;;;24.20;69.10;;;;;;6187663;23;20023;-77
2021/07/19 09:51:02;;;;;;;11.63;3.92;;;24.30;69.00;;;;;;6187920;23;20039;-80
2021/07/19 09:53:38;;;;;;;10.18;4.45;;;24.30;68.90;;;;;;6187817;23;20016;-78
2021/07/19 09:56:19;;;;;;;11.50;4.30;;;24.30;68.50;;;;;;6213373;23;20024;-78
2021/07/19 09:58:52;;;;;;;11.05;4.55;;;24.30;68.40;;;;;;6187705;23;20047;-78
2021/07/19 10:01:36;;;;;;;7.43;4.50;;;24.40;68.20;;;;;;6187845;23;20024;-79
2021/07/19 10:04:15;;;;;;;8.73;4.07;;;24.40;68.40;;;;;;6213209;23;20023;-78
2021/07/19 10:06:45;;;;;;;8.93;4.28;;;24.50;68.30;;;;;;6213727;23;20016;-78
2021/07/19 10:09:13;;;;;;;13.13;4.15;;;24.50;68.70;;;;;;6187214;23;20099;-78
2021/07/19 10:11:55;;;;;;;10.35;4.03;;;24.50;68.70;;;;;;6213586;23;20024;-78
2021/07/19 10:14:30;;;;;;;12.43;4.10;;;24.60;68.70;;;;;;6189376;23;20016;-79
2021/07/19 10:16:58;;;;;;;8.70;3.80;;;24.70;67.70;;;;;;6189509;23;20099;-78
2021/07/19 10:19:28;;;;;;;12.15;4.32;;;24.60;67.70;;;;;;6189357;23;20020;-78
2021/07/19 10:21:55;;;;;;;12.00;3.72;;;24.70;68.00;;;;;;6215775;23;20021;-78
2021/07/19 10:24:22;;;;;;;8.68;4.07;;;24.80;68.00;;;;;;6215639;23;20099;-81
2021/07/19 10:26:50;;;;;;;9.80;4.30;;;24.80;68.00;;;;;;6189408;23;20024;-79
2021/07/19 10:29:18;;;;;;;8.35;4.05;;;24.80;67.20;;;;;;6216222;23;20096;-79
2021/07/19 10:31:45;;;;;;;8.10;3.97;;;24.90;67.30;;;;;;6215684;23;20020;-79
2021/07/19 10:34:14;;;;;;;9.07;3.95;;;25.00;67.00;;;;;;6189054;23;20049;-77
2021/07/19 10:36:47;;;;;;;11.23;4.10;;;25.10;67.30;;;;;;6215180;23;20052;-77
2021/07/19 10:39:20;;;;;;;11.55;3.85;;;25.10;67.00;;;;;;6189801;23;20063;-77
2021/07/19 10:42:02;;;;;;;9.90;4.13;;;25.20;66.60;;;;;;6215757;23;20021;-77
2021/07/19 10:44:34;;;;;;;11.02;4.07;;;25.30;66.90;;;;;;6189154;23;20084;-78
2021/07/19 10:47:17;;;;;;;11.80;4.43;;;25.40;67.10;;;;;;6189315;23;20464;-79
2021/07/19 10:49:58;;;;;;;13.15;3.97;;;25.40;67.10;;;;;;6214944;23;20023;-77
2021/07/19 10:52:36;;;;;;;7.80;4.28;;;25.40;66.50;;;;;;6189781;23;20023;-78
2021/07/19 10:55:08;;;;;;;12.20;4.45;;;25.50;66.30;;;;;;6190514;23;20020;-79
2021/07/19 10:57:40;;;;;;;10.75;4.60;;;25.50;66.70;;;;;;6190341;23;20029;-77
2021/07/19 11:00:14;;;;;;;12.90;4.65;;;25.60;68.20;;;;;;6216577;23;20028;-78
2021/07/19 11:03:03;;;;;;;14.95;4.35;;;25.80;68.20;;;;;;6193328;23;20021;-77
2021/07/19 11:05:59;;;;;;;13.00;4.35;;;25.80;67.10;;;;;;6190033;23;20021;-78
2021/07/19 11:08:26;;;;;;;9.77;4.15;;;25.90;66.50;;;;;;6208616;23;20092;-78
2021/07/19 11:10:56;;;;;;;10.30;4.25;;;25.90;65.40;;;;;;6189789;23;20563;-79
2021/07/19 11:13:32;;;;;;;10.75;4.60;;;25.90;65.30;;;;;;6216127;23;20535;-77
2021/07/19 11:16:01;;;;;;;12.60;4.38;;;26.00;65.30;;;;;;6189777;23;20404;-78
2021/07/19 11:18:32;;;;;;;10.75;4.25;;;26.00;65.60;;;;;;6189769;23;20025;-77
2021/07/19 11:21:01;;;;;;;12.48;5.18;;;26.00;65.70;;;;;;6190049;23;20016;-76
2021/07/19 11:23:34;;;;;;;8.45;4.20;;;26.10;65.90;;;;;;6215491;23;20028;-76
2021/07/19 11:26:05;;;;;;;9.27;4.53;;;26.10;65.80;;;;;;6215994;23;20483;-77
2021/07/19 11:28:42;;;;;;;16.02;4.53;;;26.20;65.80;;;;;;6216380;23;20017;-78
2021/07/19 11:31:25;;;;;;;10.98;4.75;;;26.20;65.70;;;;;;6216486;23;20029;-77
2021/07/19 11:34:04;;;;;;;11.50;4.80;;;26.20;64.20;;;;;;6213328;23;20017;-78
2021/07/19 11:36:47;;;;;;;14.15;4.80;;;26.20;63.70;;;;;;6188268;23;20021;-78
2021/07/19 11:39:19;;;;;;;;;;;26.30;63.70;;;;;;6189145;23;20017;-77
2021/07/19 11:41:57;;;;;;;9.98;4.85;;;26.30;64.10;;;;;;6188313;23;20370;-78
2021/07/19 11:44:25;;;;;;;12.68;4.63;;;26.30;64.40;;;;;;6215085;23;20024;-77
2021/07/19 11:46:53;;;;;;;13.40;5.10;;;26.30;64.30;;;;;;6215039;23;20088;-76
2021/07/19 11:49:23;;;;;;;25.10;5.25;;;26.30;64.60;;;;;;6187878;23;20067;-76
2021/07/19 11:51:50;;;;;;;9.77;5.03;;;26.30;65.30;;;;;;6215104;23;20352;-79
2021/07/19 11:54:18;;;;;;;11.52;4.97;;;26.40;65.40;;;;;;6214803;23;20020;-75
2021/07/19 11:56:51;;;;;;;8.55;5.28;;;26.40;65.10;;;;;;6188258;23;20063;-78
2021/07/19 11:59:22;;;;;;;12.57;4.93;;;26.40;64.50;;;;;;6189064;23;20027;-76
2021/07/19 12:01:57;;;;;;;10.18;4.63;;;26.60;65.00;;;;;;6214695;23;20029;-78
2021/07/19 12:04:41;;;;;;;12.15;4.40;;;26.60;64.40;;;;;;6214506;23;20017;-77
2021/07/19 12:07:10;;;;;;;10.48;4.95;;;26.60;64.50;;;;;;6215231;23;20020;-75
2021/07/19 12:09:39;;;;;;;12.88;4.80;;;26.80;62.80;;;;;;6188907;23;20023;-78
2021/07/19 12:12:07;;;;;;;8.85;4.88;;;26.80;63.20;;;;;;6214798;23;20095;-77
2021/07/19 12:14:35;;;;;;;11.30;5.28;;;26.90;64.20;;;;;;6214625;23;20075;-78
2021/07/19 12:17:04;;;;;;;11.48;5.43;;;27.00;64.50;;;;;;6214454;23;20028;-76
2021/07/19 12:19:31;;;;;;;9.35;5.10;;;27.10;64.10;;;;;;6187978;23;20082;-77
2021/07/19 12:22:00;;;;;;;11.25;5.68;;;27.10;63.00;;;;;;6188297;23;20021;-77
2021/07/19 12:24:30;;;;;;;14.63;5.85;;;27.20;65.00;;;;;;6215073;23;20017;-77
2021/07/19 12:27:02;;;;;;;10.88;5.90;;;27.20;64.60;;;;;;6214294;23;20104;-77
2021/07/19 12:29:36;;;;;;;12.93;5.63;;;27.30;65.10;;;;;;6215022;23;20016;-78
2021/07/19 12:32:05;;;;;;;7.15;4.78;;;27.30;65.20;;;;;;6214202;23;20028;-76
2021/07/19 12:34:40;;;;;;;15.40;5.57;;;27.30;65.20;;;;;;6214276;23;20020;-76
2021/07/19 12:37:10;;;;;;;12.18;4.85;;;27.30;65.00;;;;;;6214505;23;20021;-77
2021/07/19 12:39:40;;;;;;;9.35;5.05;;;27.20;65.00;;;;;;6214490;23;20781;-78
2021/07/19 12:42:10;;;;;;;12.65;5.35;;;27.20;65.70;;;;;;6188134;23;20021;-77
2021/07/19 12:44:39;;;;;;;7.60;5.55;;;27.10;65.70;;;;;;6214392;23;20095;-77
2021/07/19 12:47:07;;;;;;;8.52;5.57;;;27.10;64.90;;;;;;6214646;23;20016;-75
2021/07/19 12:49:40;;;;;;;12.43;5.78;;;27.20;66.20;;;;;;6214405;23;20016;-76
2021/07/19 12:52:16;;;;;;;11.23;5.40;;;27.30;66.60;;;;;;6214188;23;20023;-78